Time;durP1;ratioP1;P1;durP2;ratioP2;P2;SDS_P1;SDS_P2;PMS_P1;PMS_P2;Temp;Humidity;BMP_temperature;BMP_pressure;BME280_temperature;BME280_humidity;BME280_pressure;Samples;Min_cycle;Max_cycle;Signal;HPM_P1;HPM_P2
2022/05/30 00:00:33;;;;;;;2.35;2.00;;;;;;;10.81;70.24;100465.25;7395739;19;20048;-69
2022/05/30 00:03:01;;;;;;;4.93;2.10;;;;;;;10.79;70.30;100458.34;7401009;19;20023;-69
2022/05/30 00:05:30;;;;;;;5.90;2.42;;;;;;;10.77;70.54;100466.25;7400958;19;20035;-70
2022/05/30 00:07:58;;;;;;;2.42;2.20;;;;;;;10.73;70.71;100464.63;7400858;19;20018;-69
2022/05/30 00:10:30;;;;;;;3.65;2.30;;;;;;;10.70;70.76;100462.06;7398592;19;20026;-69
2022/05/30 00:12:58;;;;;;;3.25;2.10;;;;;;;10.66;71.04;100466.53;7401142;19;20023;-69
2022/05/30 00:15:27;;;;;;;2.40;2.20;;;;;;;10.64;71.05;100468.34;7400666;19;20191;-69
2022/05/30 00:17:57;;;;;;;4.82;2.33;;;;;;;10.61;71.20;100459.69;7400484;19;20026;-69
2022/05/30 00:20:26;;;;;;;3.65;2.60;;;;;;;10.58;71.40;100466.75;7397861;19;20024;-69
2022/05/30 00:22:54;;;;;;;3.25;2.50;;;;;;;10.55;71.55;100466.84;7399989;19;20035;-69
2022/05/30 00:25:23;;;;;;;2.85;2.55;;;;;;;10.51;71.67;100467.78;7400363;19;20027;-69
2022/05/30 00:27:53;;;;;;;3.60;2.50;;;;;;;10.46;71.89;100458.34;7400278;19;20032;-69
2022/05/30 00:30:22;;;;;;;3.58;2.55;;;;;;;10.42;72.30;100468.03;7398274;19;20047;-69
2022/05/30 00:32:50;;;;;;;6.05;2.70;;;;;;;10.36;72.16;100470.81;7400013;19;20018;-69
2022/05/30 00:35:18;;;;;;;3.53;2.50;;;;;;;10.32;72.45;100471.75;7399613;19;20375;-69
2022/05/30 00:37:46;;;;;;;3.97;2.83;;;;;;;10.29;72.80;100477.94;7399844;19;20015;-69
2022/05/30 00:40:15;;;;;;;2.83;2.60;;;;;;;10.25;72.88;100476.31;7398107;19;20031;-69
2022/05/30 00:42:43;;;;;;;2.63;2.35;;;;;;;10.18;72.87;100462.47;7397281;19;20018;-70
2022/05/30 00:45:14;;;;;;;4.40;2.83;;;;;;;10.17;73.26;100468.59;7399667;19;20035;-69
2022/05/30 00:47:43;;;;;;;3.10;2.55;;;;;;;10.13;73.35;100466.97;7397615;19;20022;-69
2022/05/30 00:50:12;;;;;;;4.28;2.95;;;;;;;10.09;73.79;100474.03;7397287;19;20006;-69
2022/05/30 00:52:43;;;;;;;3.92;2.85;;;;;;;10.04;73.81;100475.06;7399368;19;20027;-69
2022/05/30 00:55:14;;;;;;;4.65;3.50;;;;;;;10.02;73.87;100480.34;7397404;19;20022;-69
2022/05/30 00:57:45;;;;;;;3.97;3.00;;;;;;;10.01;74.08;100473.38;7397258;19;20018;-69
2022/05/30 01:00:19;;;;;;;4.82;3.05;;;;;;;10.01;74.01;100480.34;7396483;19;20481;-69
2022/05/30 01:06:30;;;;;;;3.28;2.97;;;;;;;10.00;74.19;100468.19;7397190;19;20032;-69
2022/05/30 01:08:17;;;;;;;3.88;3.25;;;;;;;10.01;74.27;100476.00;7398681;19;20002;-69
2022/05/30 01:10:45;;;;;;;3.53;3.10;;;;;;;10.03;74.48;100473.34;7395593;19;20035;-69
2022/05/30 01:13:14;;;;;;;4.55;3.13;;;;;;;10.02;74.94;100477.72;7397990;19;20018;-69
2022/05/30 01:15:45;;;;;;;4.13;2.97;;;;;;;10.02;74.64;100476.84;7398690;19;20022;-69
2022/05/30 01:18:20;;;;;;;6.18;3.40;;;;;;;10.00;74.92;100479.50;7396825;19;20018;-69
2022/05/30 01:20:59;;;;;;;4.68;3.28;;;;;;;10.01;74.75;100477.75;7396544;19;20010;-69
2022/05/30 01:23:58;;;;;;;4.63;3.40;;;;;;;10.02;75.03;100479.47;7398510;19;20014;-69
2022/05/30 01:26:58;;;;;;;3.65;2.92;;;;;;;10.01;75.19;100480.34;7398779;19;20365;-69
2022/05/30 01:29:33;;;;;;;4.18;3.20;;;;;;;9.99;74.90;100474.31;7394862;19;20395;-69
2022/05/30 01:32:01;;;;;;;4.35;3.35;;;;;;;9.99;75.08;100482.19;7395746;19;20504;-69
2022/05/30 01:34:30;;;;;;;4.47;3.25;;;;;;;9.97;75.11;100470.84;7398793;19;20015;-69
2022/05/30 01:36:59;;;;;;;5.50;3.95;;;;;;;9.99;75.20;100471.69;7397572;19;20020;-69
2022/05/30 01:39:27;;;;;;;7.70;4.45;;;;;;;9.98;75.20;100476.06;7395557;19;20018;-69
2022/05/30 01:41:56;;;;;;;6.53;4.18;;;;;;;9.97;75.16;100476.09;7395390;19;20480;-69
2022/05/30 01:44:24;;;;;;;4.47;3.50;;;;;;;9.95;75.38;100470.91;7395860;19;20041;-69
2022/05/30 01:46:55;;;;;;;7.18;3.42;;;;;;;9.93;75.41;100470.94;7397662;19;20010;-69
2022/05/30 01:49:23;;;;;;;5.25;3.35;;;;;;;9.92;75.50;100474.44;7396728;19;20028;-69
2022/05/30 01:51:54;;;;;;;4.78;3.10;;;;;;;9.91;75.55;100464.84;7395810;19;20023;-69
2022/05/30 01:54:22;;;;;;;9.02;3.42;;;;;;;9.91;75.63;100469.25;7397704;19;20354;-69
2022/05/30 01:56:51;;;;;;;7.03;4.68;;;;;;;9.90;75.69;100468.38;7395428;19;20015;-69
2022/05/30 01:59:25;;;;;;;8.07;4.60;;;;;;;9.89;75.81;100465.78;7396388;19;20018;-69
2022/05/30 02:01:56;;;;;;;4.85;3.75;;;;;;;9.88;75.74;100474.53;7395028;19;20494;-69
2022/05/30 02:04:24;;;;;;;5.10;3.60;;;;;;;9.86;75.87;100466.72;7397353;19;20007;-69
2022/05/30 02:06:52;;;;;;;3.60;3.30;;;;;;;9.82;76.06;100461.59;7394676;19;20497;-69
2022/05/30 02:09:20;;;;;;;3.53;3.22;;;;;;;9.80;76.07;100466.88;7396871;19;20019;-69
2022/05/30 02:11:48;;;;;;;4.65;3.33;;;;;;;9.79;76.22;100457.28;7395939;19;20022;-70
2022/05/30 02:14:17;;;;;;;3.08;2.78;;;;;;;9.74;76.45;100446.03;7397934;19;20023;-69
2022/05/30 02:19:28;;;;;;;5.43;3.58;;;;;;;9.65;76.86;100448.88;7395477;19;20485;-69
2022/05/30 02:21:56;;;;;;;4.05;3.65;;;;;;;9.58;76.82;100459.50;7396823;19;20014;-69
2022/05/30 02:24:25;;;;;;;5.38;3.75;;;;;;;9.51;77.18;100442.19;7393582;19;20031;-69
2022/05/30 02:26:53;;;;;;;4.35;3.22;;;;;;;9.47;76.99;100453.63;7396218;19;20027;-69
2022/05/30 02:29:22;;;;;;;3.90;3.42;;;;;;;9.41;77.31;100459.00;7394253;19;20023;-69
2022/05/30 02:31:50;;;;;;;7.85;3.47;;;;;;;9.38;77.24;100459.94;7394360;19;20018;-69
2022/05/30 02:37:01;;;;;;;4.03;3.30;;;;;;;9.30;77.40;100453.97;7395771;19;20006;-69
2022/05/30 02:39:31;;;;;;;4.63;3.83;;;;;;;9.27;77.34;100461.91;7395367;19;20018;-69
2022/05/30 02:41:59;;;;;;;4.15;3.25;;;;;;;9.23;77.55;100457.66;7395895;19;20019;-69
2022/05/30 02:44:28;;;;;;;4.78;3.20;;;;;;;9.21;77.56;100469.88;7395710;19;20018;-69
2022/05/30 02:47:05;;;;;;;5.00;3.80;;;;;;;9.16;77.71;100464.75;7393700;19;20018;-69
2022/05/30 02:49:33;;;;;;;4.78;3.45;;;;;;;9.12;77.99;100468.31;7393779;19;20015;-69
2022/05/30 02:52:05;;;;;;;4.68;3.65;;;;;;;9.07;78.05;100470.16;7394109;19;20022;-69
2022/05/30 02:54:33;;;;;;;5.88;3.50;;;;;;;9.02;78.25;100470.25;7394193;19;20015;-69
2022/05/30 02:57:02;;;;;;;5.72;3.75;;;;;;;8.97;78.31;100474.72;7395444;19;20022;-69
2022/05/30 02:59:31;;;;;;;5.47;4.20;;;;;;;8.93;78.50;100475.66;7393765;19;20473;-69
2022/05/30 03:01:59;;;;;;;6.22;3.85;;;;;;;8.89;78.74;100468.78;7394862;19;20476;-69
2022/05/30 03:04:27;;;;;;;5.65;4.03;;;;;;;8.86;78.62;100477.56;7393488;19;20018;-69
2022/05/30 03:06:55;;;;;;;5.20;4.30;;;;;;;8.83;78.73;100479.34;7395171;19;20014;-69
2022/05/30 03:09:26;;;;;;;4.35;3.95;;;;;;;8.81;78.86;100484.63;7394145;19;20481;-69
2022/05/30 03:11:54;;;;;;;4.63;3.88;;;;;;;8.78;79.00;100484.66;7393555;19;20015;-69
2022/05/30 03:14:22;;;;;;;6.93;4.20;;;;;;;8.76;79.26;100483.84;7394611;19;20529;-69
2022/05/30 03:16:50;;;;;;;6.25;4.30;;;;;;;8.74;79.61;100493.47;7393153;19;20019;-69
2022/05/30 03:19:18;;;;;;;5.70;4.18;;;;;;;8.72;79.36;100490.00;7394100;19;20023;-69
2022/05/30 03:21:47;;;;;;;5.78;4.30;;;;;;;8.70;80.12;100492.66;7394473;19;20023;-69
2022/05/30 03:24:15;;;;;;;7.05;4.70;;;;;;;8.69;80.38;100490.94;7392805;19;20018;-70
2022/05/30 03:26:45;;;;;;;10.27;5.07;;;;;;;8.69;80.15;100492.69;7392579;19;20019;-69
2022/05/30 03:29:13;;;;;;;9.05;4.90;;;;;;;8.69;80.00;100490.94;7392819;19;20022;-69
2022/05/30 03:31:42;;;;;;;7.35;5.00;;;;;;;8.70;80.30;100497.03;7393303;19;20028;-69
2022/05/30 03:34:10;;;;;;;8.32;5.28;;;;;;;8.70;80.36;100495.28;7392089;19;20041;-69
2022/05/30 03:36:38;;;;;;;8.70;5.00;;;;;;;8.70;80.56;100495.28;7398404;19;20039;-69
2022/05/30 03:39:06;;;;;;;8.10;5.15;;;;;;;8.71;80.70;100494.38;7400765;19;20040;-70
2022/05/30 03:41:34;;;;;;;6.65;5.05;;;;;;;8.73;80.67;100502.19;7398467;19;20018;-69
2022/05/30 03:44:05;;;;;;;7.45;5.40;;;;;;;8.73;80.62;100497.84;7398567;19;20022;-69
2022/05/30 03:46:34;;;;;;;8.95;5.13;;;;;;;8.75;80.45;100497.81;7401486;19;20026;-69
2022/05/30 03:49:02;;;;;;;8.48;5.03;;;;;;;8.76;80.74;100497.78;7399533;19;20473;-69
2022/05/30 03:51:30;;;;;;;8.02;5.97;;;;;;;8.81;80.77;100505.56;7398800;19;20035;-69
2022/05/30 03:53:59;;;;;;;9.18;5.97;;;;;;;8.83;80.65;100501.13;7398150;19;20022;-69
2022/05/30 03:56:27;;;;;;;8.32;5.28;;;;;;;8.86;80.92;100503.72;7397987;19;20481;-69
2022/05/30 03:58:55;;;;;;;9.93;5.97;;;;;;;8.91;80.73;100506.22;7398188;19;20030;-69
2022/05/30 04:01:26;;;;;;;7.03;4.97;;;;;;;8.94;80.68;100509.66;7398800;19;20022;-69
2022/05/30 04:03:54;;;;;;;8.27;5.55;;;;;;;9.01;80.79;100506.91;7400988;19;20330;-69
2022/05/30 04:06:22;;;;;;;8.35;6.13;;;;;;;9.03;80.75;100508.63;7399926;19;20018;-68
2022/05/30 04:08:51;;;;;;;7.95;5.63;;;;;;;9.10;80.61;100512.00;7399546;19;20035;-69
2022/05/30 04:11:19;;;;;;;9.10;5.57;;;;;;;9.15;80.65;100517.13;7397048;19;20481;-69
2022/05/30 04:13:47;;;;;;;8.32;4.78;;;;;;;9.21;80.59;100519.63;7400571;19;20035;-69
2022/05/30 04:16:16;;;;;;;6.45;4.85;;;;;;;9.22;80.64;100522.22;7400259;19;20040;-69
2022/05/30 04:18:46;;;;;;;9.50;5.28;;;;;;;9.26;80.79;100529.13;7397472;19;20018;-68
2022/05/30 04:21:15;;;;;;;8.68;5.30;;;;;;;9.27;81.15;100528.22;7397880;19;20035;-69
2022/05/30 04:23:45;;;;;;;7.70;4.68;;;;;;;9.28;80.99;100532.56;7397341;19;20022;-69
2022/05/30 04:26:16;;;;;;;9.85;5.70;;;;;;;9.31;80.55;100526.41;7396801;19;20485;-68
2022/05/30 04:28:44;;;;;;;9.02;5.00;;;;;;;9.37;80.75;100530.66;7397277;19;20423;-69
2022/05/30 04:31:15;;;;;;;9.93;5.00;;;;;;;9.43;80.59;100536.63;7398533;19;20023;-71
2022/05/30 04:33:43;;;;;;;7.20;4.80;;;;;;;9.48;80.57;100528.69;7396092;19;20018;-69
2022/05/30 04:36:16;;;;;;;7.28;4.72;;;;;;;9.51;80.80;100520.75;7399112;19;20026;-69
2022/05/30 04:38:45;;;;;;;9.13;4.60;;;;;;;9.57;80.55;100520.63;7399501;19;20028;-69
2022/05/30 04:41:13;;;;;;;9.40;4.65;;;;;;;9.60;80.45;100525.81;7396915;19;20022;-69
2022/05/30 04:43:41;;;;;;;15.70;6.43;;;;;;;9.61;80.30;100519.66;7399201;19;20022;-68
2022/05/30 04:46:13;;;;;;;16.70;5.70;;;;;;;9.65;80.18;100524.84;7396117;19;20039;-69
2022/05/30 04:48:42;;;;;;;14.45;5.63;;;;;;;9.69;80.06;100524.75;7397071;19;20033;-68
2022/05/30 04:51:14;;;;;;;10.52;4.32;;;;;;;9.70;79.66;100517.75;7395949;19;20422;-68
2022/05/30 04:53:42;;;;;;;10.55;4.25;;;;;;;9.71;79.63;100527.34;7398543;19;20026;-69
2022/05/30 04:56:12;;;;;;;8.68;3.45;;;;;;;9.72;79.42;100522.06;7398115;19;20029;-69
2022/05/30 04:58:40;;;;;;;12.32;4.30;;;;;;;9.77;79.31;100524.59;7397490;19;20024;-69
2022/05/30 05:01:10;;;;;;;12.43;4.50;;;;;;;9.82;79.18;100533.22;7395063;19;20486;-71
2022/05/30 05:03:40;;;;;;;9.05;4.45;;;;;;;9.84;78.98;100533.16;7398673;19;20078;-69
2022/05/30 05:06:11;;;;;;;10.23;4.72;;;;;;;9.86;79.02;100537.47;7396194;19;20014;-69
2022/05/30 05:08:54;;;;;;;12.27;4.35;;;;;;;9.89;78.91;100529.53;7393028;19;20489;-70
2022/05/30 05:11:24;;;;;;;13.07;4.07;;;;;;;9.90;78.57;100528.66;7396302;19;20052;-69
2022/05/30 05:13:52;;;;;;;7.38;3.47;;;;;;;9.92;78.66;100524.25;7397794;19;20035;-68
2022/05/30 05:16:23;;;;;;;11.05;3.50;;;;;;;9.97;78.68;100532.00;7397298;19;20388;-69
2022/05/30 05:18:52;;;;;;;13.32;3.95;;;;;;;10.02;78.27;100531.88;7397088;19;20022;-69
2022/05/30 05:21:22;;;;;;;13.63;3.60;;;;;;;10.08;78.01;100534.38;7396728;19;20412;-69
2022/05/30 05:23:53;;;;;;;9.18;3.40;;;;;;;10.13;77.88;100532.50;7396350;19;20039;-69
2022/05/30 05:26:22;;;;;;;14.43;4.07;;;;;;;10.17;77.56;100531.53;7395993;19;20041;-69
2022/05/30 05:28:50;;;;;;;12.63;3.45;;;;;;;10.22;77.31;100536.66;7397125;19;20392;-69
2022/05/30 05:31:26;;;;;;;18.52;3.85;;;;;;;10.22;77.04;100537.56;7397021;19;20023;-68
2022/05/30 05:33:57;;;;;;;10.20;3.45;;;;;;;10.23;76.93;100536.63;7397756;19;20025;-69
2022/05/30 05:36:28;;;;;;;10.15;3.17;;;;;;;10.22;76.66;100534.94;7396971;19;20512;-71
2022/05/30 05:39:00;;;;;;;12.85;3.28;;;;;;;10.21;76.40;100540.19;7395014;19;20039;-68
2022/05/30 05:41:28;;;;;;;9.55;3.10;;;;;;;10.23;76.54;100538.41;7394675;19;20015;-69
2022/05/30 05:43:58;;;;;;;13.57;3.72;;;;;;;10.24;76.45;100535.72;7396844;19;20015;-68
2022/05/30 05:46:28;;;;;;;14.75;3.38;;;;;;;10.30;76.40;100539.09;7394934;19;20357;-68
2022/05/30 05:48:58;;;;;;;11.35;3.10;;;;;;;10.35;76.33;100545.97;7395605;19;20018;-68
2022/05/30 05:51:27;;;;;;;12.18;3.35;;;;;;;10.42;76.07;100544.94;7395217;19;20023;-68
2022/05/30 05:53:56;;;;;;;12.93;3.22;;;;;;;10.50;75.74;100544.78;7396853;19;20010;-69
2022/05/30 05:56:29;;;;;;;9.70;3.08;;;;;;;10.46;75.26;100542.25;7397063;19;20079;-70
2022/05/30 05:58:57;;;;;;;11.65;2.80;;;;;;;10.52;75.19;100544.75;7393317;19;20014;-69
2022/05/30 06:01:33;;;;;;;13.95;3.65;;;;;;;10.58;75.06;100544.59;7396846;19;20019;-69
2022/05/30 06:04:03;;;;;;;12.48;3.05;;;;;;;10.63;74.53;100541.84;7394812;19;20014;-69
2022/05/30 06:06:32;;;;;;;11.02;2.50;;;;;;;10.67;74.33;100548.75;7394370;19;20014;-69
2022/05/30 06:09:01;;;;;;;11.60;2.75;;;;;;;10.65;73.68;100554.00;7396022;19;20022;-69
2022/05/30 06:11:32;;;;;;;12.23;2.97;;;;;;;10.59;73.39;100551.56;7394593;19;20021;-69
2022/05/30 06:14:00;;;;;;;11.07;2.70;;;;;;;10.58;73.62;100558.56;7396726;19;20019;-68
2022/05/30 06:16:31;;;;;;;7.03;2.33;;;;;;;10.56;73.68;100557.75;7394608;19;20018;-68
2022/05/30 06:19:02;;;;;;;11.35;2.78;;;;;;;10.58;73.70;100549.84;7396426;19;20034;-68
2022/05/30 06:21:32;;;;;;;8.95;2.45;;;;;;;10.64;73.65;100548.81;7394110;19;20404;-68
2022/05/30 06:24:01;;;;;;;8.57;2.33;;;;;;;10.74;73.31;100550.28;7395689;19;20038;-69
2022/05/30 06:26:32;;;;;;;9.70;2.40;;;;;;;10.83;73.00;100559.69;7395070;19;20090;-68
2022/05/30 06:29:00;;;;;;;7.80;2.50;;;;;;;10.88;72.43;100548.19;7394607;19;20014;-68
2022/05/30 06:31:31;;;;;;;9.88;2.67;;;;;;;10.94;72.56;100555.03;7394873;19;20014;-69
2022/05/30 06:34:02;;;;;;;12.00;2.80;;;;;;;10.99;72.44;100547.03;7393942;19;20018;-68
2022/05/30 06:36:31;;;;;;;11.27;2.28;;;;;;;11.05;72.22;100547.72;7394066;19;20022;-71
2022/05/30 06:39:00;;;;;;;7.60;2.00;;;;;;;11.13;71.84;100547.50;7394172;19;20377;-69
2022/05/30 06:41:32;;;;;;;9.43;2.72;;;;;;;11.17;71.39;100553.56;7393441;19;20074;-68
2022/05/30 06:44:04;;;;;;;8.43;2.80;;;;;;;11.17;70.89;100550.94;7395286;19;20022;-68
2022/05/30 06:46:34;;;;;;;11.20;2.53;;;;;;;11.16;71.07;100557.94;7394995;19;20010;-68
2022/05/30 06:49:03;;;;;;;9.93;2.90;;;;;;;11.20;71.15;100564.84;7394688;19;20021;-67
2022/05/30 06:51:33;;;;;;;13.32;3.88;;;;;;;11.25;71.10;100567.34;7392794;19;20607;-68
2022/05/30 06:54:01;;;;;;;12.93;2.63;;;;;;;11.27;70.39;100569.94;7395349;19;20037;-68
2022/05/30 06:56:34;;;;;;;10.57;3.00;;;;;;;11.30;69.86;100568.09;7395363;19;20035;-68
2022/05/30 06:59:02;;;;;;;9.40;2.60;;;;;;;11.31;69.69;100559.31;7394818;19;20023;-68
2022/05/30 07:01:33;;;;;;;9.07;2.50;;;;;;;11.33;69.33;100572.38;7393217;19;20035;-68
2022/05/30 07:04:02;;;;;;;9.35;2.50;;;;;;;11.35;69.17;100567.97;7395331;19;20108;-68
2022/05/30 07:06:34;;;;;;;11.82;3.28;;;;;;;11.40;68.96;100571.31;7394864;19;20029;-68
2022/05/30 07:09:03;;;;;;;9.48;2.30;;;;;;;11.45;68.82;100566.78;7394963;19;20031;-68
2022/05/30 07:11:36;;;;;;;11.32;2.55;;;;;;;11.53;68.32;100575.31;7402289;19;20480;-73
2022/05/30 07:14:04;;;;;;;7.10;2.17;;;;;;;11.57;68.16;100573.47;7402502;19;20018;-69
2022/05/30 07:16:32;;;;;;;9.07;2.90;;;;;;;11.57;67.99;100570.81;7398950;19;20032;-69
2022/05/30 07:19:00;;;;;;;8.93;2.20;;;;;;;11.62;68.13;100575.97;7398678;19;20018;-68
2022/05/30 07:21:28;;;;;;;7.40;2.10;;;;;;;11.66;67.90;100569.69;7401861;19;20018;-68
2022/05/30 07:23:56;;;;;;;8.27;2.58;;;;;;;11.69;67.82;100570.47;7398822;19;20035;-69
2022/05/30 07:26:25;;;;;;;6.65;2.35;;;;;;;11.73;67.25;100571.25;7401708;19;20036;-69
2022/05/30 07:28:55;;;;;;;6.70;2.00;;;;;;;11.77;66.95;100575.50;7400997;19;20027;-70
2022/05/30 07:31:26;;;;;;;9.40;3.03;;;;;;;11.77;66.95;100580.75;7401816;19;20031;-71
2022/05/30 07:33:55;;;;;;;7.07;2.17;;;;;;;11.79;66.57;100584.22;7398419;19;20494;-70
2022/05/30 07:36:26;;;;;;;8.02;2.17;;;;;;;11.79;66.39;100584.22;7402439;19;20031;-70
2022/05/30 07:38:56;;;;;;;4.63;2.17;;;;;;;11.80;66.39;100585.91;7401463;19;20018;-70
2022/05/30 07:41:27;;;;;;;9.75;2.47;;;;;;;11.83;66.39;100591.09;7400930;19;20383;-70
2022/05/30 07:43:58;;;;;;;9.00;2.00;;;;;;;11.85;66.12;100589.31;7400894;19;20024;-69
2022/05/30 07:46:27;;;;;;;7.07;2.10;;;;;;;11.87;65.84;100600.59;7401014;19;20026;-69
2022/05/30 07:48:55;;;;;;;6.28;2.33;;;;;;;11.92;65.62;100597.84;7400924;19;20026;-71
2022/05/30 07:51:24;;;;;;;5.78;2.20;;;;;;;11.95;65.07;100595.13;7398302;19;20430;-71
2022/05/30 07:53:52;;;;;;;8.00;2.40;;;;;;;12.01;65.22;100596.75;7398478;19;20354;-71
2022/05/30 07:56:21;;;;;;;3.47;1.92;;;;;;;12.10;64.70;100600.88;7397973;19;20024;-71
2022/05/30 07:58:49;;;;;;;9.30;2.15;;;;;;;12.19;64.44;100593.53;7400279;19;20032;-71
2022/05/30 08:01:21;;;;;;;9.35;2.90;;;;;;;12.29;64.47;100586.22;7400813;19;20039;-70
2022/05/30 08:03:51;;;;;;;5.35;2.63;;;;;;;12.38;64.03;100588.59;7400553;19;20032;-71
2022/05/30 08:06:22;;;;;;;8.73;2.47;;;;;;;12.45;63.95;100591.88;7400058;19;20015;-71
2022/05/30 08:08:58;;;;;;;7.97;2.22;;;;;;;12.53;63.80;100595.13;7399948;19;20035;-71
2022/05/30 08:11:26;;;;;;;7.93;2.30;;;;;;;12.61;63.76;100601.91;7400398;19;20398;-71
2022/05/30 08:13:55;;;;;;;6.18;2.33;;;;;;;12.67;63.30;100601.72;7398020;19;20023;-71
2022/05/30 08:16:28;;;;;;;3.97;1.80;;;;;;;12.65;62.32;100606.16;7399969;19;20014;-71
2022/05/30 08:18:56;;;;;;;4.90;2.00;;;;;;;12.58;62.95;100609.91;7399359;19;20014;-71
2022/05/30 08:21:24;;;;;;;10.75;2.42;;;;;;;12.60;62.84;100608.06;7398166;19;20015;-71
2022/05/30 08:23:52;;;;;;;7.18;2.60;;;;;;;12.62;62.43;100599.22;7399344;19;20091;-71
2022/05/30 08:26:20;;;;;;;3.70;1.63;;;;;;;12.67;62.59;100610.47;7399555;19;20040;-71
2022/05/30 08:28:48;;;;;;;9.05;2.25;;;;;;;12.80;61.96;100615.31;7399063;19;20023;-71
2022/05/30 08:31:17;;;;;;;7.25;2.03;;;;;;;12.91;62.38;100614.97;7399160;19;20346;-72
2022/05/30 08:33:48;;;;;;;8.80;2.95;;;;;;;12.99;61.70;100615.56;7397032;19;20019;-70
2022/05/30 08:36:16;;;;;;;6.53;1.95;;;;;;;13.09;61.44;100614.38;7399638;19;20033;-71
2022/05/30 08:38:44;;;;;;;6.78;2.05;;;;;;;13.20;61.35;100614.84;7396667;19;20022;-71
2022/05/30 08:43:57;;;;;;;9.45;2.38;;;;;;;13.26;60.65;100613.75;7399088;19;20089;-71
2022/05/30 08:46:37;;;;;;;8.35;2.05;;;;;;;13.24;59.52;100615.59;7399180;19;20019;-71
2022/05/30 08:49:19;;;;;;;6.80;1.98;;;;;;;13.27;60.03;100622.53;7396898;19;20022;-71
2022/05/30 08:52:25;;;;;;;7.93;2.65;;;;;;;13.27;60.35;100620.75;7395687;19;20074;-74
2022/05/30 08:55:04;;;;;;;4.80;1.88;;;;;;;13.35;59.63;100628.38;7399717;19;20365;-72
2022/05/30 08:57:42;;;;;;;5.85;1.52;;;;;;;13.44;59.84;100619.34;7400898;19;20014;-70
2022/05/30 09:00:17;;;;;;;6.10;1.75;;;;;;;13.50;59.18;100619.13;7397390;19;20022;-69
2022/05/30 09:02:52;;;;;;;5.75;1.65;;;;;;;13.48;58.31;100627.09;7396707;19;20035;-69
2022/05/30 09:05:27;;;;;;;7.35;2.28;;;;;;;13.39;58.73;100623.91;7398247;19;20026;-70
2022/05/30 09:07:59;;;;;;;5.72;1.88;;;;;;;13.30;58.31;100635.59;7398080;19;20368;-69
2022/05/30 09:10:35;;;;;;;4.20;1.35;;;;;;;13.29;58.09;100628.59;7396146;19;20026;-69
2022/05/30 09:13:07;;;;;;;4.72;1.65;;;;;;;13.26;56.97;100626.09;7396498;19;20022;-70
2022/05/30 09:15:44;;;;;;;11.15;1.83;;;;;;;13.26;57.70;100634.00;7397783;19;20082;-66
2022/05/30 09:18:15;;;;;;;4.65;1.73;;;;;;;13.20;57.84;100624.50;7398122;19;20023;-69
2022/05/30 09:20:46;;;;;;;5.22;1.40;;;;;;;13.19;57.61;100628.94;7395763;19;20036;-68
2022/05/30 09:23:16;;;;;;;4.38;1.40;;;;;;;13.23;57.50;100621.78;7396151;19;20014;-68
2022/05/30 09:26:00;;;;;;;4.35;1.27;;;;;;;13.28;56.61;100618.97;7395866;19;20023;-68
2022/05/30 09:28:31;;;;;;;6.63;1.73;;;;;;;13.36;56.28;100623.06;7397417;19;20011;-68
2022/05/30 09:31:09;;;;;;;7.25;1.75;;;;;;;13.43;56.45;100626.38;7394949;19;20018;-69
2022/05/30 09:33:39;;;;;;;5.90;1.50;;;;;;;13.48;55.78;100624.44;7394187;19;20026;-68
2022/05/30 09:36:20;;;;;;;4.15;1.60;;;;;;;13.55;55.25;100619.81;7394484;19;20018;-68
2022/05/30 09:38:50;;;;;;;4.25;1.27;;;;;;;13.52;55.48;100615.50;7395506;19;20011;-68
2022/05/30 09:41:21;;;;;;;5.47;1.75;;;;;;;13.51;55.35;100616.41;7394621;19;20018;-68
2022/05/30 09:43:58;;;;;;;4.15;1.17;;;;;;;13.51;54.56;100603.25;7396506;19;20018;-69
2022/05/30 09:46:37;;;;;;;4.05;1.17;;;;;;;13.57;55.22;100604.78;7395320;19;20014;-69
2022/05/30 09:49:09;;;;;;;2.20;1.15;;;;;;;13.60;54.86;100604.69;7396893;19;20485;-68
2022/05/30 09:51:44;;;;;;;4.45;1.05;;;;;;;13.61;55.27;100610.81;7395476;19;20494;-68
2022/05/30 09:54:14;;;;;;;3.40;1.88;;;;;;;13.63;55.17;100606.34;7396201;19;20065;-68
2022/05/30 09:56:46;;;;;;;5.75;1.38;;;;;;;13.67;55.38;100595.66;7396584;19;20477;-68
2022/05/30 09:59:34;;;;;;;5.05;2.22;;;;;;;13.77;55.38;100598.78;7396598;19;20022;-68
2022/05/30 10:02:03;;;;;;;3.45;1.27;;;;;;;13.87;55.09;100603.72;7397128;19;20030;-69
2022/05/30 10:04:38;;;;;;;7.13;1.30;;;;;;;13.95;54.81;100599.00;7394867;19;20026;-68
2022/05/30 10:07:14;;;;;;;3.50;1.42;;;;;;;14.03;53.51;100599.59;7395563;19;20082;-68
2022/05/30 10:09:52;;;;;;;3.30;1.23;;;;;;;14.12;54.46;100586.03;7395014;19;20019;-68
2022/05/30 10:12:31;;;;;;;6.60;1.67;;;;;;;14.16;53.35;100606.09;7396357;19;20031;-69
2022/05/30 10:14:59;;;;;;;5.22;1.33;;;;;;;14.02;53.05;100603.13;7393881;19;20018;-68
2022/05/30 10:17:33;;;;;;;5.97;1.30;;;;;;;13.95;53.21;100599.00;7396000;19;20022;-67
2022/05/30 10:20:04;;;;;;;5.72;1.13;;;;;;;13.90;54.45;100603.59;7394443;19;20507;-67
2022/05/30 10:28:36;;;;;;;3.13;1.10;;;;;;;13.43;61.21;100626.38;7395870;19;20029;-68
2022/05/30 10:31:15;;;;;;;5.90;1.90;;;;;;;13.13;62.88;100617.72;7395563;19;20014;-68
2022/05/30 10:34:06;;;;;;;5.22;1.65;;;;;;;12.74;68.24;100616.41;7393851;19;20086;-69
2022/05/30 10:36:44;;;;;;;4.20;1.83;;;;;;;12.39;66.52;100610.50;7394707;19;20473;-69
2022/05/30 10:39:25;;;;;;;7.60;2.45;;;;;;;12.16;67.25;100612.06;7393430;19;20372;-68
2022/05/30 10:42:00;;;;;;;3.53;1.90;;;;;;;12.00;67.97;100613.44;7394816;19;20503;-68
2022/05/30 10:44:32;;;;;;;6.18;2.05;;;;;;;11.95;67.81;100613.53;7392252;19;20387;-69
2022/05/30 10:47:08;;;;;;;6.90;1.65;;;;;;;11.97;67.82;100606.50;7392855;19;20074;-69
2022/05/30 10:49:40;;;;;;;6.75;1.95;;;;;;;12.09;67.45;100607.03;7395936;19;20018;-68
2022/05/30 10:52:15;;;;;;;6.88;1.98;;;;;;;12.21;67.24;100615.41;7393392;19;20014;-70
2022/05/30 10:54:54;;;;;;;4.65;1.88;;;;;;;12.32;67.07;100617.72;7393860;19;20035;-70
2022/05/30 10:57:27;;;;;;;4.05;1.33;;;;;;;12.41;62.80;100613.94;7395170;19;20031;-71
2022/05/30 11:00:04;;;;;;;6.18;1.40;;;;;;;12.53;64.32;100618.78;7393001;19;20015;-71
2022/05/30 11:02:46;;;;;;;5.25;1.33;;;;;;;12.67;62.85;100626.25;7395181;19;20018;-70
2022/05/30 11:05:21;;;;;;;2.72;1.20;;;;;;;12.85;62.83;100622.19;7394915;19;20022;-71
2022/05/30 11:07:55;;;;;;;3.42;1.08;;;;;;;13.04;60.37;100609.25;7394577;19;20029;-71
2022/05/30 11:10:35;;;;;;;2.20;0.63;;;;;;;13.20;59.45;100614.84;7393063;19;20026;-76
2022/05/30 11:13:11;;;;;;;5.40;1.10;;;;;;;13.34;59.41;100621.41;7393659;19;20490;-71
2022/05/30 11:15:45;;;;;;;3.22;1.08;;;;;;;13.48;59.20;100608.63;7393399;19;20018;-71
2022/05/30 11:18:18;;;;;;;1.65;1.13;;;;;;;13.66;58.83;100611.50;7393320;19;20426;-70
2022/05/30 11:20:52;;;;;;;2.53;1.15;;;;;;;13.83;58.79;100614.38;7391267;19;20022;-71
2022/05/30 11:23:20;;;;;;;6.60;1.70;;;;;;;14.02;57.98;100621.59;7392175;19;20022;-70
2022/05/30 11:26:17;;;;;;;3.58;1.10;;;;;;;14.16;55.73;100614.00;7390051;19;20507;-70
2022/05/30 11:29:12;;;;;;;5.57;0.90;;;;;;;14.22;52.97;100618.19;7393006;19;20128;-70
2022/05/30 11:31:47;;;;;;;3.88;1.05;;;;;;;14.28;55.58;100612.69;7394130;19;20095;-71
2022/05/30 11:34:32;;;;;;;1.88;0.90;;;;;;;14.34;51.16;100620.34;7391305;19;20439;-70
2022/05/30 11:37:25;;;;;;;3.70;1.08;;;;;;;14.39;52.24;100616.66;7393264;19;20026;-70
2022/05/30 11:40:07;;;;;;;1.88;0.73;;;;;;;14.44;51.82;100609.41;7391310;19;20485;-70
2022/05/30 11:42:46;;;;;;;2.55;1.08;;;;;;;14.52;51.06;100607.34;7393239;19;20011;-71
2022/05/30 11:45:26;;;;;;;1.95;0.70;;;;;;;14.58;49.55;100609.72;7393514;19;20468;-70
2022/05/30 11:48:02;;;;;;;3.15;0.73;;;;;;;14.58;50.86;100615.00;7392862;19;20485;-70
2022/05/30 11:50:35;;;;;;;3.40;0.95;;;;;;;14.55;51.00;100612.50;7391022;19;20031;-70
2022/05/30 11:53:37;;;;;;;3.50;1.13;;;;;;;14.56;49.93;100610.69;7391181;19;20014;-72
2022/05/30 11:56:12;;;;;;;5.18;1.05;;;;;;;14.58;51.85;100617.63;7393595;19;20019;-68
2022/05/30 11:59:02;;;;;;;4.07;1.00;;;;;;;14.59;49.37;100618.50;7400986;19;20354;-66
2022/05/30 12:01:34;;;;;;;3.17;1.00;;;;;;;14.59;49.51;100618.50;7400823;19;20014;-67
2022/05/30 12:04:38;;;;;;;5.00;0.93;;;;;;;14.59;48.81;100623.78;7400834;19;20040;-67